Time;durP1;ratioP1;P1;durP2;ratioP2;P2;SDS_P1;SDS_P2;PMS_P1;PMS_P2;Temp;Humidity;BMP_temperature;BMP_pressure;BME280_temperature;BME280_humidity;BME280_pressure;Samples;Min_cycle;Max_cycle;Signal;HPM_P1;HPM_P2
2022/11/30 00:00:21;;;;;;;;;;;;;;;-144.99;100.00;52651.94;5070450;28;19994;-68
2022/11/30 00:02:52;;;;;;;;;;;;;;;-144.99;100.00;52627.47;5074377;28;19964;-67
2022/11/30 00:05:19;;;;;;;;;;;;;;;-144.99;100.00;52611.16;5074913;28;19962;-67
2022/11/30 00:07:45;;;;;;;;;;;;;;;-144.99;100.00;52641.72;5062496;28;19955;-67
2022/11/30 00:10:12;;;;;;;;;;;;;;;-144.99;100.00;52611.16;5072708;28;19992;-66
2022/11/30 00:12:41;;;;;;;;;;;;;;;-144.99;100.00;52619.31;5069944;28;20424;-65
2022/11/30 00:15:08;;;;;;;;;;;;;;;-144.99;100.00;52594.84;5054124;28;19967;-65
2022/11/30 00:17:36;;;;;;;;;;;;;;;-144.99;100.00;52660.09;5057331;28;20459;-65
2022/11/30 00:20:02;;;;;;;;;;;;;;;-144.99;100.00;52635.63;5062570;28;20339;-66
2022/11/30 00:22:29;;;;;;;;;;;;;;;-144.99;100.00;52633.59;5060067;28;19924;-66
2022/11/30 00:24:58;;;;;;;;;;;;;;;-144.99;100.00;52586.69;5061094;28;19944;-66
2022/11/30 00:27:24;;;;;;;;;;;;;;;-144.99;100.00;52619.31;5060634;28;19928;-66
2022/11/30 00:29:51;;;;;;;;;;;;;;;-144.99;100.00;52611.16;5065910;28;20012;-66
2022/11/30 00:32:17;;;;;;;;;;;;;;;-144.99;100.00;52625.44;5065780;28;19993;-66
2022/11/30 00:34:45;;;;;;;;;;;;;;;-144.99;100.00;52623.38;5063452;28;19956;-67
2022/11/30 00:37:13;;;;;;;;;;;;;;;-144.99;100.00;52623.38;5065389;28;19929;-66
2022/11/30 00:39:39;;;;;;;;;;;;;;;-144.99;100.00;52627.47;5062317;28;20007;-66
2022/11/30 00:42:06;;;;;;;;;;;;;;;-144.99;100.00;52621.34;5053571;28;20213;-65
2022/11/30 00:44:32;;;;;;;;;;;;;;;-144.99;100.00;52570.38;5062685;28;19935;-65
2022/11/30 00:46:59;;;;;;;;;;;;;;;-144.99;100.00;52615.25;5065781;28;19936;-66
2022/11/30 00:49:25;;;;;;;;;;;;;;;-144.99;100.00;52635.63;5062177;28;19958;-65
2022/11/30 00:51:53;;;;;;;;;;;;;;;-144.99;100.00;52594.84;5053329;28;20027;-74
2022/11/30 00:54:20;;;;;;;;;;;;;;;-144.99;100.00;52594.84;5073920;28;19954;-74
2022/11/30 00:56:46;;;;;;;;;;;;;;;-144.99;100.00;52605.03;5073833;28;20394;-72
2022/11/30 00:59:13;;;;;;;;;;;;;;;-144.99;100.00;52635.63;5065442;28;19974;-71
2022/11/30 01:01:39;;;;;;;;;;;;;;;-144.99;100.00;52598.94;5059113;28;19925;-70
2022/11/30 01:04:06;;;;;;;;;;;;;;;-144.99;100.00;52621.34;5055800;28;19956;-70
2022/11/30 01:06:33;;;;;;;;;;;;;;;-144.99;100.00;52560.19;5061255;28;20486;-71
2022/11/30 01:09:01;;;;;;;;;;;;;;;-144.99;100.00;52635.63;5054246;28;19937;-72
2022/11/30 01:11:31;;;;;;;;;;;;;;;-144.99;100.00;52598.94;5064887;28;19985;-72
2022/11/30 01:13:58;;;;;;;;;;;;;;;-144.99;100.00;52651.94;5056943;28;19966;-72
2022/11/30 01:16:26;;;;;;;;;;;;;;;-144.99;100.00;52623.38;5060963;28;19960;-71
2022/11/30 01:18:53;;;;;;;;;;;;;;;-144.99;100.00;52598.94;5057584;28;19949;-67
2022/11/30 01:21:20;;;;;;;;;;;;;;;-144.99;100.00;52647.84;5057403;28;19963;-67
2022/11/30 01:23:47;;;;;;;;;;;;;;;-144.99;100.00;52617.28;5061539;28;19964;-67
2022/11/30 01:26:16;;;;;;;;;;;;;;;-144.99;100.00;52603.00;5069829;22;20164;-67
2022/11/30 01:28:43;;;;;;;;;;;;;;;-144.99;100.00;52586.69;5061200;28;20015;-62
2022/11/30 01:31:11;;;;;;;;;;;;;;;-144.99;100.00;52607.09;5062723;28;20006;-62
2022/11/30 01:33:38;;;;;;;;;;;;;;;-144.99;100.00;52598.94;5048997;28;20343;-63
2022/11/30 01:36:06;;;;;;;;;;;;;;;-144.99;100.00;52607.09;5044732;28;19975;-64
2022/11/30 01:38:33;;;;;;;;;;;;;;;-144.99;100.00;52643.78;5048382;28;19939;-64
2022/11/30 01:40:59;;;;;;;;;;;;;;;-144.99;100.00;52611.16;5044100;28;20017;-64
2022/11/30 01:43:38;;;;;;;;;;;;;;;-144.99;100.00;52578.53;5043980;28;19928;-64
2022/11/30 01:46:06;;;;;;;;;;;;;;;-144.99;100.00;52631.53;5050712;28;19945;-64
2022/11/30 01:48:32;;;;;;;;;;;;;;;-144.99;100.00;52643.78;5041648;28;19937;-62
2022/11/30 01:50:59;;;;;;;;;;;;;;;-144.99;100.00;52615.25;5041365;28;19967;-62
2022/11/30 01:53:26;;;;;;;;;;;;;;;-144.99;100.00;52651.94;5043858;28;19992;-62
2022/11/30 01:55:52;;;;;;;;;;;;;;;-144.99;100.00;52598.94;5039926;28;19998;-66
2022/11/30 01:58:24;;;;;;;;;;;;;;;-144.99;100.00;52639.69;5042004;28;19961;-66
2022/11/30 02:00:52;;;;;;;;;;;;;;;-144.99;100.00;52596.88;5041161;28;19925;-64
2022/11/30 02:03:23;;;;;;;;;;;;;;;-144.99;100.00;52643.78;5049578;28;19993;-65
2022/11/30 02:05:50;;;;;;;;;;;;;;;-144.99;100.00;52607.09;5053965;28;19974;-66
2022/11/30 02:08:17;;;;;;;;;;;;;;;-144.99;100.00;52603.00;5056817;28;20012;-64
2022/11/30 02:10:45;;;;;;;;;;;;;;;-144.99;100.00;52611.16;5044301;28;19932;-64
2022/11/30 02:13:22;;;;;;;;;;;;;;;-144.99;100.00;52619.31;5044189;28;20020;-63
2022/11/30 02:15:54;;;;;;;;;;;;;;;-144.99;100.00;52607.09;5039562;28;20412;-64
2022/11/30 02:18:26;;;;;;;;;;;;;;;-144.99;100.00;52631.53;5059918;28;19951;-64
2022/11/30 02:20:59;;;;;;;;;;;;;;;-144.99;100.00;52600.97;5046588;28;19929;-63
2022/11/30 02:23:37;;;;;;;;;;;;;;;-144.99;100.00;52631.53;5044235;28;20507;-64
2022/11/30 02:26:08;;;;;;;;;;;;;;;-144.99;100.00;52627.47;5041764;28;19983;-65
2022/11/30 02:28:45;;;;;;;;;;;;;;;-144.99;100.00;52627.47;5045697;28;20048;-67
2022/11/30 02:31:14;;;;;;;;;;;;;;;-144.99;100.00;52635.63;5048612;28;19959;-67
2022/11/30 02:33:42;;;;;;;;;;;;;;;-144.99;100.00;52615.25;5043598;28;20013;-67
2022/11/30 02:36:09;;;;;;;;;;;;;;;-144.99;100.00;52637.66;5044818;28;20498;-67
2022/11/30 02:38:37;;;;;;;;;;;;;;;-144.99;100.00;52594.84;5047720;28;19997;-67
2022/11/30 02:41:04;;;;;;;;;;;;;;;-144.99;100.00;52586.69;5037935;28;20023;-68
2022/11/30 02:43:31;;;;;;;;;;;;;;;-144.99;100.00;52607.09;5046065;28;19978;-67
2022/11/30 02:46:05;;;;;;;;;;;;;;;-144.99;100.00;52619.31;5044053;28;19955;-67
2022/11/30 02:48:38;;;;;;;;;;;;;;;-144.99;100.00;52619.31;5045266;28;19935;-70
2022/11/30 02:51:07;;;;;;;;;;;;;;;-144.99;100.00;52631.53;5046377;28;19961;-68
2022/11/30 02:53:34;;;;;;;;;;;;;;;-144.99;100.00;52639.69;5056027;28;20054;-68
2022/11/30 02:56:01;;;;;;;;;;;;;;;-144.99;100.00;52605.03;5058114;28;20401;-68
2022/11/30 02:58:27;;;;;;;;;;;;;;;-144.99;100.00;52631.53;5039854;28;19937;-68
2022/11/30 03:00:54;;;;;;;;;;;;;;;-144.99;100.00;52619.31;5047477;28;20002;-68
2022/11/30 03:03:22;;;;;;;;;;;;;;;-144.99;100.00;52596.88;5047865;28;20523;-68
2022/11/30 03:05:48;;;;;;;;;;;;;;;-144.99;100.00;52605.03;5039001;28;19950;-68
2022/11/30 03:08:15;;;;;;;;;;;;;;;-144.99;100.00;52603.00;5044767;28;19925;-68
2022/11/30 03:10:42;;;;;;;;;;;;;;;-144.99;100.00;52598.94;5045328;28;19932;-68
2022/11/30 03:13:08;;;;;;;;;;;;;;;-144.99;100.00;52623.38;5047756;28;19928;-75
2022/11/30 03:15:35;;;;;;;;;;;;;;;-144.99;100.00;52639.69;5048356;28;19963;-73
2022/11/30 03:18:01;;;;;;;;;;;;;;;-144.99;100.00;52619.31;5047638;28;19986;-69
2022/11/30 03:20:29;;;;;;;;;;;;;;;-144.99;100.00;52627.47;5042994;28;19924;-69
2022/11/30 03:22:58;;;;;;;;;;;;;;;-144.99;100.00;52607.09;5046502;28;20592;-70
2022/11/30 03:25:25;;;;;;;;;;;;;;;-144.99;100.00;52637.66;5041002;28;19957;-69
2022/11/30 03:27:52;;;;;;;;;;;;;;;-144.99;100.00;52598.94;5045366;28;20372;-69
2022/11/30 03:30:18;;;;;;;;;;;;;;;-144.99;100.00;52619.31;5037015;28;19943;-68
2022/11/30 03:32:45;;;;;;;;;;;;;;;-144.99;100.00;52631.53;5047610;28;19978;-69
2022/11/30 03:35:11;;;;;;;;;;;;;;;-144.99;100.00;52594.84;5038339;28;20425;-68
2022/11/30 03:37:39;;;;;;;;;;;;;;;-144.99;100.00;52603.00;5044424;28;20358;-70
2022/11/30 03:40:07;;;;;;;;;;;;;;;-144.99;100.00;52623.38;5046151;28;19959;-70
2022/11/30 03:42:33;;;;;;;;;;;;;;;-144.99;100.00;52623.38;5042134;28;19952;-70
2022/11/30 03:45:00;;;;;;;;;;;;;;;-144.99;100.00;52621.34;5044711;28;19936;-71
2022/11/30 03:47:26;;;;;;;;;;;;;;;-144.99;100.00;52631.53;5046313;28;19940;-70
2022/11/30 03:49:53;;;;;;;;;;;;;;;-144.99;100.00;52641.72;5045169;28;20388;-70
2022/11/30 03:52:20;;;;;;;;;;;;;;;-144.99;100.00;52631.53;5055870;28;20013;-70
2022/11/30 03:54:47;;;;;;;;;;;;;;;-144.99;100.00;52656.00;5046810;28;19995;-71
2022/11/30 03:57:14;;;;;;;;;;;;;;;-144.99;100.00;52615.25;5051011;28;19974;-69
2022/11/30 03:59:40;;;;;;;;;;;;;;;-144.99;100.00;52615.25;5064472;28;19964;-70
2022/11/30 04:02:09;;;;;;;;;;;;;;;-144.99;100.00;52611.16;5040418;28;19929;-69
2022/11/30 04:04:35;;;;;;;;;;;;;;;-144.99;100.00;52594.84;5036849;28;19951;-69
2022/11/30 04:07:02;;;;;;;;;;;;;;;-144.99;100.00;52627.47;5043335;28;20444;-68
2022/11/30 04:09:28;;;;;;;;;;;;;;;-144.99;100.00;52621.34;5058209;28;20283;-69
2022/11/30 04:11:56;;;;;;;;;;;;;;;-144.99;100.00;52639.69;5061079;28;20070;-69
2022/11/30 04:14:23;;;;;;;;;;;;;;;-144.99;100.00;52615.25;5040722;28;19944;-70
2022/11/30 04:16:50;;;;;;;;;;;;;;;-144.99;100.00;52590.78;5046884;28;19953;-69
2022/11/30 04:19:16;;;;;;;;;;;;;;;-144.99;100.00;52611.16;5044638;28;19929;-69
2022/11/30 04:21:43;;;;;;;;;;;;;;;-144.99;100.00;52607.09;5045749;28;20603;-71
2022/11/30 04:24:09;;;;;;;;;;;;;;;-144.99;100.00;52603.00;5056425;28;20404;-71
2022/11/30 04:26:36;;;;;;;;;;;;;;;-144.99;100.00;52611.16;5044186;28;19969;-70
2022/11/30 04:29:04;;;;;;;;;;;;;;;-144.99;100.00;52645.81;5041339;28;19924;-69
2022/11/30 04:31:31;;;;;;;;;;;;;;;-144.99;100.00;52639.69;5052403;28;19962;-72
2022/11/30 04:33:57;;;;;;;;;;;;;;;-144.99;100.00;52619.31;5047085;28;19946;-71
2022/11/30 04:36:24;;;;;;;;;;;;;;;-144.99;100.00;52658.03;5069703;28;19970;-73
2022/11/30 04:38:51;;;;;;;;;;;;;;;-144.99;100.00;52641.72;5064669;28;19959;-69
2022/11/30 04:41:17;;;;;;;;;;;;;;;-144.99;100.00;52619.31;5049183;28;19962;-68
2022/11/30 04:43:44;;;;;;;;;;;;;;;-144.99;100.00;52639.69;5043560;28;19929;-70
2022/11/30 04:46:12;;;;;;;;;;;;;;;-144.99;100.00;52603.00;5046889;28;20027;-65
2022/11/30 04:48:38;;;;;;;;;;;;;;;-144.99;100.00;52564.28;5048430;28;19935;-72
2022/11/30 04:51:06;;;;;;;;;;;;;;;-144.99;100.00;52590.78;5050054;28;19956;-69
2022/11/30 04:53:33;;;;;;;;;;;;;;;-144.99;100.00;52607.09;5051247;28;20008;-71
2022/11/30 04:56:04;;;;;;;;;;;;;;;-144.99;100.00;52631.53;5041380;28;20353;-72
2022/11/30 04:58:30;;;;;;;;;;;;;;;-144.99;100.00;52635.63;5040773;28;20279;-71
2022/11/30 05:00:57;;;;;;;;;;;;;;;-144.99;100.00;52619.31;5044578;28;20469;-72
2022/11/30 05:03:25;;;;;;;;;;;;;;;-144.99;100.00;52590.78;5038297;28;19939;-71
2022/11/30 05:05:51;;;;;;;;;;;;;;;-144.99;100.00;52627.47;5048325;28;19969;-70
2022/11/30 05:08:18;;;;;;;;;;;;;;;-144.99;100.00;52631.53;5047662;28;20555;-69
2022/11/30 05:10:45;;;;;;;;;;;;;;;-144.99;100.00;52615.25;5047278;28;20293;-69
2022/11/30 05:13:11;;;;;;;;;;;;;;;-144.99;100.00;52603.00;5042422;28;20234;-69
2022/11/30 05:15:38;;;;;;;;;;;;;;;-144.99;100.00;52627.47;5048352;28;19928;-66
2022/11/30 05:18:04;;;;;;;;;;;;;;;-144.99;100.00;52623.38;5049200;28;19994;-67
2022/11/30 05:20:32;;;;;;;;;;;;;;;-144.99;100.00;52629.50;5064345;28;19994;-67
2022/11/30 05:22:59;;;;;;;;;;;;;;;-144.99;100.00;52627.47;5063654;28;19925;-68
2022/11/30 05:25:25;;;;;;;;;;;;;;;-144.99;100.00;52588.75;5047611;28;19947;-68
2022/11/30 05:27:52;;;;;;;;;;;;;;;-144.99;100.00;52586.69;5049430;28;19945;-68
2022/11/30 05:30:19;;;;;;;;;;;;;;;-144.99;100.00;52653.97;5041309;28;20374;-70
2022/11/30 05:32:45;;;;;;;;;;;;;;;-144.99;100.00;52590.78;5049916;28;19962;-70
2022/11/30 05:35:12;;;;;;;;;;;;;;;-144.99;100.00;52615.25;5045615;28;19959;-70
2022/11/30 05:37:40;;;;;;;;;;;;;;;-144.99;100.00;52594.84;5040609;28;20335;-70
2022/11/30 05:40:07;;;;;;;;;;;;;;;-144.99;100.00;52603.00;5039139;28;19951;-70
2022/11/30 05:42:34;;;;;;;;;;;;;;;-144.99;100.00;52574.47;5045825;28;19925;-70
2022/11/30 05:45:00;;;;;;;;;;;;;;;-144.99;100.00;52594.84;5045116;28;19997;-69
2022/11/30 05:47:27;;;;;;;;;;;;;;;-144.99;100.00;52615.25;5049866;28;20574;-69
2022/11/30 05:49:53;;;;;;;;;;;;;;;-144.99;100.00;52615.25;5049881;28;19936;-60
2022/11/30 05:52:20;;;;;;;;;;;;;;;-144.99;100.00;52621.34;5047403;28;19955;-74
2022/11/30 05:54:48;;;;;;;;;;;;;;;-144.99;100.00;52611.16;5049787;28;19942;-73
2022/11/30 05:57:14;;;;;;;;;;;;;;;-144.99;100.00;52607.09;5040924;28;20303;-72
2022/11/30 05:59:41;;;;;;;;;;;;;;;-144.99;100.00;52615.25;5061291;28;19943;-74
2022/11/30 06:02:07;;;;;;;;;;;;;;;-144.99;100.00;52586.69;5063072;28;19959;-72
2022/11/30 06:04:34;;;;;;;;;;;;;;;-144.99;100.00;52578.53;5059275;28;20408;-75
2022/11/30 06:07:01;;;;;;;;;;;;;;;-144.99;100.00;52592.81;4703774;28;9999882;-76
2022/11/30 06:09:28;;;;;;;;;;;;;;;-144.99;100.00;52590.78;5049929;28;20362;-75
2022/11/30 06:11:56;;;;;;;;;;;;;;;-144.99;100.00;52598.94;5056081;28;19960;-76
2022/11/30 06:14:23;;;;;;;;;;;;;;;-144.99;100.00;52629.50;5041809;28;19925;-75
2022/11/30 06:16:50;;;;;;;;;;;;;;;-144.99;100.00;52615.25;5051357;28;19954;-76
2022/11/30 06:19:16;;;;;;;;;;;;;;;-144.99;100.00;52590.78;5045937;28;19971;-76
2022/11/30 06:21:43;;;;;;;;;;;;;;;-144.99;100.00;52619.31;5054747;28;20001;-76
2022/11/30 06:24:10;;;;;;;;;;;;;;;-144.99;100.00;52607.09;5042546;28;20383;-76
2022/11/30 06:26:36;;;;;;;;;;;;;;;-144.99;100.00;52629.50;5040398;28;20430;-75
2022/11/30 06:29:04;;;;;;;;;;;;;;;-144.99;100.00;52611.16;5033253;28;19929;-75
2022/11/30 06:31:31;;;;;;;;;;;;;;;-144.99;100.00;52611.16;5056134;28;19983;-76
2022/11/30 06:33:58;;;;;;;;;;;;;;;-144.99;100.00;52619.31;5035961;28;19943;-75
2022/11/30 06:36:25;;;;;;;;;;;;;;;-144.99;100.00;52668.22;5053023;28;19963;-76
2022/11/30 06:38:52;;;;;;;;;;;;;;;-144.99;100.00;52623.38;5053721;28;19982;-75
2022/11/30 06:41:19;;;;;;;;;;;;;;;-144.99;100.00;52631.53;5036571;28;20429;-75
2022/11/30 06:43:46;;;;;;;;;;;;;;;-144.99;100.00;52615.25;5063495;28;19928;-75
2022/11/30 06:46:14;;;;;;;;;;;;;;;-144.99;100.00;52631.53;5041768;28;19929;-75
2022/11/30 06:48:40;;;;;;;;;;;;;;;-144.99;100.00;52613.19;5060338;28;20015;-76
2022/11/30 06:51:08;;;;;;;;;;;;;;;-144.99;100.00;52627.47;5035306;28;20376;-75
2022/11/30 06:53:34;;;;;;;;;;;;;;;-144.99;100.00;52623.38;5044961;28;19929;-76
2022/11/30 06:56:03;;;;;;;;;;;;;;;-144.99;100.00;52607.09;5055043;28;19970;-75
2022/11/30 06:58:30;;;;;;;;;;;;;;;-144.99;100.00;52662.13;5043034;28;19928;-75
2022/11/30 07:00:56;;;;;;;;;;;;;;;-144.99;100.00;52615.25;5052315;28;20004;-75
2022/11/30 07:03:25;;;;;;;;;;;;;;;-144.99;100.00;52633.59;5042311;28;19932;-76
2022/11/30 07:06:01;;;;;;;;;;;;;;;-144.99;100.00;52623.38;5046478;28;20460;-75
2022/11/30 07:08:28;;;;;;;;;;;;;;;-144.99;100.00;52590.78;5039822;28;20040;-75
2022/11/30 07:10:55;;;;;;;;;;;;;;;-144.99;100.00;52603.00;5041935;28;20015;-75
2022/11/30 07:13:21;;;;;;;;;;;;;;;-144.99;100.00;52656.00;5042182;28;19948;-75
2022/11/30 07:15:48;;;;;;;;;;;;;;;-144.99;100.00;52598.94;5048908;28;20189;-76
2022/11/30 07:18:14;;;;;;;;;;;;;;;-144.99;100.00;52647.84;5057067;28;20399;-74
2022/11/30 07:20:43;;;;;;;;;;;;;;;-144.99;100.00;52647.84;5038490;28;20433;-75
2022/11/30 07:26:09;;;;;;;;;;;;;;;-144.99;100.00;52623.38;4969850;28;19945;-75
2022/11/30 07:28:37;;;;;;;;;;;;;;;-144.99;100.00;52625.44;5047822;28;19929;-75
2022/11/30 07:31:13;;;;;;;;;;;;;;;-144.99;100.00;52639.69;5082152;28;19971;-76
2022/11/30 07:33:39;;;;;;;;;;;;;;;-144.99;100.00;52617.28;5064837;28;19949;-75
2022/11/30 07:36:08;;;;;;;;;;;;;;;-144.99;100.00;52607.09;5048954;28;19965;-75
2022/11/30 07:38:35;;;;;;;;;;;;;;;-144.99;100.00;52611.16;5056935;28;19942;-74
2022/11/30 07:41:02;;;;;;;;;;;;;;;-144.99;100.00;52619.31;5057976;28;19969;-74
2022/11/30 07:43:29;;;;;;;;;;;;;;;-144.99;100.00;52631.53;5048700;28;20273;-75
2022/11/30 07:45:56;;;;;;;;;;;;;;;-144.99;100.00;52619.31;5056964;28;19954;-75
2022/11/30 07:48:24;;;;;;;;;;;;;;;-144.99;100.00;52619.31;5057391;28;20006;-76
2022/11/30 07:50:51;;;;;;;;;;;;;;;-144.99;100.00;52603.00;5050748;28;19964;-76
2022/11/30 07:53:19;;;;;;;;;;;;;;;-144.99;100.00;52656.00;4701462;28;10000285;-75
2022/11/30 07:55:46;;;;;;;;;;;;;;;-144.99;100.00;52627.47;5049706;28;20434;-76
2022/11/30 07:58:12;;;;;;;;;;;;;;;-144.99;100.00;52607.09;5048205;28;19990;-75
2022/11/30 08:00:39;;;;;;;;;;;;;;;-144.99;100.00;52631.53;5042701;28;19986;-75
2022/11/30 08:03:06;;;;;;;;;;;;;;;-144.99;100.00;52639.69;5050268;28;19991;-75
2022/11/30 08:05:32;;;;;;;;;;;;;;;-144.99;100.00;52598.94;5049315;28;20056;-75
2022/11/30 08:07:59;;;;;;;;;;;;;;;-144.99;100.00;52635.63;5049446;28;20018;-75
2022/11/30 08:10:27;;;;;;;;;;;;;;;-144.99;100.00;52647.84;5049852;28;19944;-75
2022/11/30 08:12:54;;;;;;;;;;;;;;;-144.99;100.00;52590.78;5049186;28;19937;-75
2022/11/30 08:15:21;;;;;;;;;;;;;;;-144.99;100.00;52631.53;5056198;28;19953;-74
2022/11/30 08:17:53;;;;;;;;;;;;;;;-144.99;100.00;52611.16;5050583;28;20317;-76
2022/11/30 08:20:23;;;;;;;;;;;;;;;-144.99;100.00;52664.16;5050904;28;20643;-75
2022/11/30 08:22:51;;;;;;;;;;;;;;;-144.99;100.00;52664.16;5048793;28;20042;-76
2022/11/30 08:25:18;;;;;;;;;;;;;;;-144.99;100.00;52635.63;5049923;28;20373;-75
2022/11/30 08:27:46;;;;;;;;;;;;;;;-144.99;100.00;52619.31;5049595;28;20460;-75
2022/11/30 08:30:13;;;;;;;;;;;;;;;-144.99;100.00;52627.47;5043835;28;19976;-76
2022/11/30 08:32:40;;;;;;;;;;;;;;;-144.99;100.00;52623.38;5048617;28;20427;-75
2022/11/30 08:35:07;;;;;;;;;;;;;;;-144.99;100.00;52562.25;5051653;28;19933;-75
2022/11/30 08:37:35;;;;;;;;;;;;;;;-144.99;100.00;52623.38;5045606;28;20390;-75
2022/11/30 08:40:02;;;;;;;;;;;;;;;-144.99;100.00;52584.66;5047559;28;19953;-75
2022/11/30 08:42:29;;;;;;;;;;;;;;;-144.99;100.00;52629.50;5050201;28;20025;-75
2022/11/30 08:44:57;;;;;;;;;;;;;;;-144.99;100.00;52598.94;5042966;28;19945;-76
2022/11/30 08:47:24;;;;;;;;;;;;;;;-144.99;100.00;52598.94;5041542;28;19929;-75
2022/11/30 08:49:50;;;;;;;;;;;;;;;-144.99;100.00;52605.03;5053990;28;19940;-75
2022/11/30 08:52:17;;;;;;;;;;;;;;;-144.99;100.00;52619.31;5051007;28;19971;-75
2022/11/30 08:54:45;;;;;;;;;;;;;;;-144.99;100.00;52582.63;5045801;28;19928;-75
2022/11/30 08:57:11;;;;;;;;;;;;;;;-144.99;100.00;52611.16;5036223;28;20605;-75
2022/11/30 08:59:38;;;;;;;;;;;;;;;-144.99;100.00;52623.38;5067578;28;19964;-74
2022/11/30 09:02:06;;;;;;;;;;;;;;;-144.99;100.00;52590.78;5068795;28;20047;-74
2022/11/30 09:04:33;;;;;;;;;;;;;;;-144.99;100.00;52607.09;5047520;28;20051;-75
2022/11/30 09:07:00;;;;;;;;;;;;;;;-144.99;100.00;52598.94;5048378;28;19939;-75
2022/11/30 09:09:27;;;;;;;;;;;;;;;-144.99;100.00;52619.31;5047585;28;20068;-75
2022/11/30 09:11:53;;;;;;;;;;;;;;;-144.99;100.00;52625.44;5052425;28;20050;-75
2022/11/30 09:14:20;;;;;;;;;;;;;;;-144.99;100.00;52635.63;5046086;28;19943;-75
2022/11/30 09:16:47;;;;;;;;;;;;;;;-144.99;100.00;52639.69;5044997;28;20401;-75
2022/11/30 09:19:15;;;;;;;;;;;;;;;-144.99;100.00;52639.69;5043457;28;19943;-74
2022/11/30 09:21:42;;;;;;;;;;;;;;;-144.99;100.00;52643.78;5044847;28;20024;-75
2022/11/30 09:24:09;;;;;;;;;;;;;;;-144.99;100.00;52623.38;5041964;28;20046;-74
2022/11/30 09:26:36;;;;;;;;;;;;;;;-144.99;100.00;52619.31;5042173;28;20300;-75
2022/11/30 09:29:03;;;;;;;;;;;;;;;-144.99;100.00;52615.25;5042584;28;19937;-75
2022/11/30 09:31:30;;;;;;;;;;;;;;;-144.99;100.00;52631.53;5049154;28;19956;-75
2022/11/30 09:33:57;;;;;;;;;;;;;;;-144.99;100.00;52615.25;5043138;28;19981;-76
2022/11/30 09:36:27;;;;;;;;;;;;;;;-144.99;100.00;52568.34;5048790;28;19924;-75
2022/11/30 09:38:54;;;;;;;;;;;;;;;-144.99;100.00;52619.31;5045792;28;20019;-75
2022/11/30 09:41:35;;;;;;;;;;;;;;;-144.99;100.00;52598.94;5052466;28;19972;-75
2022/11/30 09:44:09;;;;;;;;;;;;;;;-144.99;100.00;52615.25;5067849;28;19928;-75
2022/11/30 09:46:38;;;;;;;;;;;;;;;-144.99;100.00;52615.25;5062962;28;20360;-75
2022/11/30 09:49:07;;;;;;;;;;;;;;;-144.99;100.00;52635.63;5057773;28;20408;-74
2022/11/30 09:51:40;;;;;;;;;;;;;;;-144.99;100.00;52590.78;5056661;28;19932;-74
2022/11/30 09:54:12;;;;;;;;;;;;;;;-144.99;100.00;52603.00;5053744;28;19925;-75
2022/11/30 09:56:39;;;;;;;;;;;;;;;-144.99;100.00;52615.25;5051697;28;20393;-74
2022/11/30 09:59:08;;;;;;;;;;;;;;;-144.99;100.00;52586.69;5052746;28;20427;-74
2022/11/30 10:01:35;;;;;;;;;;;;;;;-144.99;100.00;52598.94;5056703;28;19997;-75
2022/11/30 10:04:01;;;;;;;;;;;;;;;-144.99;100.00;52617.28;5055006;28;19925;-74
2022/11/30 10:06:34;;;;;;;;;;;;;;;-144.99;100.00;52607.09;5054329;28;19974;-75
2022/11/30 10:09:16;;;;;;;;;;;;;;;-144.99;100.00;52590.78;5046074;28;19924;-75
2022/11/30 10:11:50;;;;;;;;;;;;;;;-144.99;100.00;52603.00;5054896;28;20460;-75
2022/11/30 10:14:32;;;;;;;;;;;;;;;-144.99;100.00;52615.25;5052717;28;19940;-74
2022/11/30 10:17:04;;;;;;;;;;;;;;;-144.99;100.00;52586.69;5053224;28;19929;-74
2022/11/30 10:19:46;;;;;;;;;;;;;;;-144.99;100.00;52603.00;5054827;28;19940;-73
2022/11/30 10:22:15;;;;;;;;;;;;;;;-144.99;100.00;52598.94;5060603;28;20039;-73
2022/11/30 10:24:52;;;;;;;;;;;;;;;-144.99;100.00;52586.69;5051943;28;19929;-75
2022/11/30 10:27:28;;;;;;;;;;;;;;;-144.99;100.00;52603.00;5046669;28;20004;-73
2022/11/30 10:29:55;;;;;;;;;;;;;;;-144.99;100.00;52594.84;5058450;28;19962;-74
2022/11/30 10:32:26;;;;;;;;;;;;;;;-144.99;100.00;52603.00;5054489;28;20169;-73
2022/11/30 10:34:54;;;;;;;;;;;;;;;-144.99;100.00;52615.25;5053955;28;20325;-74
2022/11/30 10:37:22;;;;;;;;;;;;;;;-144.99;100.00;52598.94;5057055;28;19969;-75
2022/11/30 10:39:57;;;;;;;;;;;;;;;-144.99;100.00;52572.44;5055263;28;20074;-74
2022/11/30 10:42:28;;;;;;;;;;;;;;;-144.99;100.00;52574.47;5046976;28;19932;-74
2022/11/30 10:44:59;;;;;;;;;;;;;;;-144.99;100.00;52611.16;5051473;28;19940;-74
2022/11/30 10:47:27;;;;;;;;;;;;;;;-144.99;100.00;52572.44;5059181;28;19954;-74
2022/11/30 10:49:53;;;;;;;;;;;;;;;-144.99;100.00;52590.78;5063480;28;19964;-74
2022/11/30 10:52:23;;;;;;;;;;;;;;;-144.99;100.00;52641.72;5055172;28;19968;-74
2022/11/30 10:54:51;;;;;;;;;;;;;;;-144.99;100.00;52607.09;5060196;28;19959;-73
2022/11/30 10:57:20;;;;;;;;;;;;;;;-144.99;100.00;52598.94;5053418;28;19956;-75
2022/11/30 10:59:48;;;;;;;;;;;;;;;-144.99;100.00;52580.59;5057567;28;19957;-75
2022/11/30 11:02:35;;;;;;;;;;;;;;;-144.99;100.00;52586.69;5053778;28;19955;-75
2022/11/30 11:05:09;;;;;;;;;;;;;;;-144.99;100.00;52631.53;5048472;28;19939;-74
2022/11/30 11:07:44;;;;;;;;;;;;;;;-144.99;100.00;52615.25;5051825;28;19928;-75
2022/11/30 11:10:13;;;;;;;;;;;;;;;-144.99;100.00;52582.63;5059506;28;19970;-77
2022/11/30 11:12:46;;;;;;;;;;;;;;;-144.99;100.00;52631.53;5054368;28;20142;-74
2022/11/30 11:15:18;;;;;;;;;;;;;;;-144.99;100.00;52621.34;5053133;28;19932;-74
2022/11/30 11:17:45;;;;;;;;;;;;;;;-144.99;100.00;52617.28;5049169;28;20001;-76
2022/11/30 11:20:27;;;;;;;;;;;;;;;-144.99;100.00;52619.31;5047461;28;19966;-75
2022/11/30 11:22:54;;;;;;;;;;;;;;;-144.99;100.00;52627.47;5044162;28;20382;-75
2022/11/30 11:25:22;;;;;;;;;;;;;;;-144.99;100.00;52578.53;5048949;28;19964;-74
2022/11/30 11:27:53;;;;;;;;;;;;;;;-144.99;100.00;52635.63;5045315;28;19925;-75
2022/11/30 11:30:28;;;;;;;;;;;;;;;-144.99;100.00;52631.53;5046546;28;19969;-74
2022/11/30 11:32:58;;;;;;;;;;;;;;;-144.99;100.00;52619.31;5046990;28;19925;-76
2022/11/30 11:35:35;;;;;;;;;;;;;;;-144.99;100.00;52578.53;5045109;28;20029;-74
2022/11/30 11:38:02;;;;;;;;;;;;;;;-144.99;100.00;52554.09;5037423;28;20088;-75
2022/11/30 11:40:29;;;;;;;;;;;;;;;-144.99;100.00;52586.69;5045873;28;20321;-74
2022/11/30 11:42:58;;;;;;;;;;;;;;;-144.99;100.00;52590.78;5045603;28;19948;-74
2022/11/30 11:45:26;;;;;;;;;;;;;;;-144.99;100.00;52586.69;5046906;28;19941;-75
2022/11/30 11:47:58;;;;;;;;;;;;;;;-144.99;100.00;52545.94;5042683;28;19973;-76
2022/11/30 11:50:27;;;;;;;;;;;;;;;-144.99;100.00;52582.63;5034941;28;20009;-76
2022/11/30 11:53:13;;;;;;;;;;;;;;;-144.99;100.00;52615.25;5043685;28;19961;-75
2022/11/30 11:55:41;;;;;;;;;;;;;;;-144.99;100.00;52625.44;5052570;28;19970;-75
2022/11/30 11:58:14;;;;;;;;;;;;;;;-144.99;100.00;52576.50;5069478;28;19968;-75
2022/11/30 12:00:41;;;;;;;;;;;;;;;-144.99;100.00;52603.00;5047991;28;19946;-74
2022/11/30 12:03:14;;;;;;;;;;;;;;;-144.99;100.00;52615.25;5045096;28;20087;-75
2022/11/30 12:05:42;;;;;;;;;;;;;;;-144.99;100.00;52570.38;5040820;28;19929;-75
2022/11/30 12:08:13;;;;;;;;;;;;;;;-144.99;100.00;52639.69;5033798;28;20418;-75
2022/11/30 12:10:42;;;;;;;;;;;;;;;-144.99;100.00;52598.94;5051074;28;19954;-74
2022/11/30 12:13:13;;;;;;;;;;;;;;;-144.99;100.00;52582.63;5047925;28;19998;-75
2022/11/30 12:15:44;;;;;;;;;;;;;;;-144.99;100.00;52603.00;5046339;28;19928;-75
2022/11/30 12:18:18;;;;;;;;;;;;;;;-144.99;100.00;52607.09;5047976;28;19933;-75
2022/11/30 12:20:51;;;;;;;;;;;;;;;-144.99;100.00;52623.38;5044284;28;19942;-75
2022/11/30 12:23:29;;;;;;;;;;;;;;;-144.99;100.00;52603.00;5048067;28;19962;-75
2022/11/30 12:26:02;;;;;;;;;;;;;;;-144.99;100.00;52631.53;5046706;28;19966;-74